Time;durP1;ratioP1;P1;durP2;ratioP2;P2;SDS_P1;SDS_P2;PMS_P1;PMS_P2;Temp;Humidity;BMP_temperature;BMP_pressure;BME280_temperature;BME280_humidity;BME280_pressure;Samples;Min_cycle;Max_cycle;Signal;HPM_P1;HPM_P2
2022/09/14 00:00:00;;;;;;;4.30;3.90;;;18.80;99.90;;;;;;5012001;28;20771;-86
2022/09/14 00:02:26;;;;;;;4.67;4.27;;;18.80;99.90;;;;;;5013004;28;20660;-86
2022/09/14 00:04:53;;;;;;;4.43;4.03;;;18.80;99.90;;;;;;5012564;28;20169;-86
2022/09/14 00:07:18;;;;;;;5.87;4.00;;;18.70;99.90;;;;;;5011867;28;20182;-86
2022/09/14 00:09:44;;;;;;;4.60;4.20;;;18.70;99.90;;;;;;5011485;28;20165;-87
2022/09/14 00:12:10;;;;;;;6.90;4.20;;;18.70;99.90;;;;;;5011467;28;20178;-86
2022/09/14 00:14:38;;;;;;;4.90;4.30;;;18.70;99.90;;;;;;5011335;28;20641;-86
2022/09/14 00:17:04;;;;;;;4.33;3.97;;;18.70;99.90;;;;;;5011536;28;20201;-85
2022/09/14 00:19:30;;;;;;;6.00;4.50;;;18.70;99.90;;;;;;5011538;28;20172;-86
2022/09/14 00:21:57;;;;;;;7.20;4.40;;;18.70;99.90;;;;;;5011228;28;20177;-87
2022/09/14 00:24:25;;;;;;;7.67;4.83;;;18.60;99.90;;;;;;5011815;28;20193;-86
2022/09/14 00:26:52;;;;;;;4.97;4.47;;;18.70;99.90;;;;;;5012277;28;20180;-89
2022/09/14 00:29:19;;;;;;;4.90;4.50;;;18.70;99.90;;;;;;5011381;28;20523;-88
2022/09/14 00:31:45;;;;;;;4.90;4.40;;;18.70;99.90;;;;;;5009815;28;20201;-87
2022/09/14 00:34:14;;;;;;;5.30;4.80;;;18.60;99.90;;;;;;5009502;28;20234;-86
2022/09/14 00:36:43;;;;;;;4.40;4.10;;;18.60;99.90;;;;;;5009513;28;20220;-88
2022/09/14 00:39:10;;;;;;;5.00;4.20;;;18.50;99.90;;;;;;5010933;28;20220;-87
2022/09/14 00:41:39;;;;;;;4.40;4.17;;;18.60;99.90;;;;;;5010998;28;20173;-87
2022/09/14 00:44:27;;;;;;;4.40;4.20;;;18.50;99.90;;;;;;5012372;28;20173;-86
2022/09/14 00:46:56;;;;;;;4.70;4.23;;;18.40;99.90;;;;;;5010127;28;20209;-87
2022/09/14 00:49:26;;;;;;;4.80;4.40;;;18.50;99.90;;;;;;5012941;28;20591;-88
2022/09/14 00:52:02;;;;;;;4.67;4.33;;;18.50;99.90;;;;;;5012688;28;20260;-85
2022/09/14 00:54:30;;;;;;;4.40;4.10;;;18.50;99.90;;;;;;5035283;28;20153;-85
2022/09/14 00:57:01;;;;;;;4.57;4.10;;;18.50;99.90;;;;;;5035399;28;20295;-87
2022/09/14 00:59:30;;;;;;;4.77;4.23;;;18.40;99.90;;;;;;5013289;28;20299;-89
2022/09/14 01:01:56;;;;;;;5.10;4.60;;;18.40;99.90;;;;;;5011593;28;20173;-87
2022/09/14 01:04:23;;;;;;;4.87;4.57;;;18.40;99.90;;;;;;5011506;28;20597;-87
2022/09/14 01:07:10;;;;;;;4.77;4.37;;;18.40;99.90;;;;;;5014330;28;20648;-88
2022/09/14 01:09:55;;;;;;;7.53;4.30;;;18.30;99.90;;;;;;5014966;28;20207;-87
2022/09/14 01:12:45;;;;;;;4.80;4.47;;;18.30;99.90;;;;;;5011247;28;20173;-86
2022/09/14 01:15:32;;;;;;;5.40;4.93;;;18.30;99.90;;;;;;5011577;28;20162;-87
2022/09/14 01:18:07;;;;;;;4.73;4.40;;;18.20;99.90;;;;;;5011927;28;20208;-86
2022/09/14 01:21:09;;;;;;;4.70;4.40;;;18.30;99.90;;;;;;5010511;28;20173;-86
2022/09/14 01:24:00;;;;;;;5.50;4.00;;;18.30;99.90;;;;;;5010566;28;20168;-86
2022/09/14 01:26:43;;;;;;;5.23;4.33;;;18.20;99.90;;;;;;5009189;28;20235;-85
2022/09/14 01:29:30;;;;;;;5.17;4.57;;;18.30;99.90;;;;;;5010468;28;20189;-84
2022/09/14 01:32:27;;;;;;;5.07;4.60;;;18.20;99.90;;;;;;5010399;28;20168;-84
2022/09/14 01:35:17;;;;;;;4.60;4.30;;;18.30;99.90;;;;;;5009343;28;20565;-85
2022/09/14 01:37:55;;;;;;;4.70;4.30;;;18.20;99.90;;;;;;5010082;28;20782;-86
2022/09/14 01:40:32;;;;;;;5.10;4.10;;;18.20;99.90;;;;;;5011002;28;20177;-84
2022/09/14 01:43:09;;;;;;;4.77;4.40;;;18.20;99.90;;;;;;5012522;28;20165;-86
2022/09/14 01:45:41;;;;;;;5.40;4.70;;;18.20;99.90;;;;;;5010803;28;20160;-85
2022/09/14 01:48:09;;;;;;;5.97;4.50;;;18.20;99.90;;;;;;5010202;28;20170;-85
2022/09/14 01:50:45;;;;;;;5.70;4.30;;;18.30;99.90;;;;;;5011696;28;20239;-84
2022/09/14 01:53:37;;;;;;;7.87;4.40;;;18.20;99.90;;;;;;5009095;28;20223;-85
2022/09/14 01:56:22;;;;;;;4.87;4.47;;;18.20;99.90;;;;;;5012007;28;20197;-84
2022/09/14 01:58:53;;;;;;;4.77;4.47;;;18.20;99.90;;;;;;5013996;28;20203;-85
2022/09/14 02:01:24;;;;;;;4.77;4.30;;;18.10;99.90;;;;;;5013902;28;20172;-84
2022/09/14 02:03:56;;;;;;;4.73;4.30;;;18.10;99.90;;;;;;5012535;28;20187;-84
2022/09/14 02:06:43;;;;;;;5.00;4.60;;;18.10;99.90;;;;;;5013967;28;20166;-86
2022/09/14 02:09:11;;;;;;;4.57;4.17;;;18.20;99.90;;;;;;5012774;28;20189;-87
2022/09/14 02:11:37;;;;;;;5.83;4.30;;;18.20;99.90;;;;;;5015164;28;20765;-88
2022/09/14 02:14:04;;;;;;;4.37;4.17;;;18.20;99.90;;;;;;5014847;28;20197;-88
2022/09/14 02:16:30;;;;;;;5.00;4.50;;;18.30;99.90;;;;;;5013763;28;20258;-86
2022/09/14 02:18:58;;;;;;;5.17;4.60;;;18.20;99.90;;;;;;5012257;28;20212;-85
2022/09/14 02:21:33;;;;;;;5.97;4.50;;;18.20;99.90;;;;;;5014232;28;20260;-86
2022/09/14 02:24:00;;;;;;;5.17;4.30;;;18.20;99.90;;;;;;5014406;28;20300;-87
2022/09/14 02:26:26;;;;;;;5.57;4.43;;;18.30;99.90;;;;;;5013348;28;20181;-85
2022/09/14 02:28:56;;;;;;;5.37;4.10;;;18.30;99.90;;;;;;5012998;28;20189;-86
2022/09/14 02:31:45;;;;;;;5.63;4.20;;;18.20;99.90;;;;;;5032144;28;20173;-84
2022/09/14 02:34:21;;;;;;;4.40;4.03;;;18.30;99.90;;;;;;5037646;28;20180;-86
2022/09/14 02:36:58;;;;;;;4.77;4.23;;;18.30;99.90;;;;;;5014832;28;20258;-86
2022/09/14 02:40:01;;;;;;;5.67;4.03;;;18.30;99.90;;;;;;5013120;28;20696;-87
2022/09/14 02:42:27;;;;;;;4.50;4.13;;;18.30;99.90;;;;;;5013997;28;20651;-87
2022/09/14 02:45:30;;;;;;;4.97;4.57;;;18.40;99.90;;;;;;5013160;28;20182;-87
2022/09/14 02:48:13;;;;;;;5.07;3.63;;;18.30;99.90;;;;;;5013207;28;20537;-85
2022/09/14 02:50:46;;;;;;;5.13;4.07;;;18.40;99.90;;;;;;5013218;28;20199;-86
2022/09/14 02:53:26;;;;;;;4.20;3.90;;;18.30;99.90;;;;;;5013247;28;20200;-85
2022/09/14 02:56:07;;;;;;;4.40;4.10;;;18.30;99.90;;;;;;5012971;28;20169;-86
2022/09/14 02:58:38;;;;;;;6.60;4.30;;;18.30;99.90;;;;;;5011885;28;20534;-86
2022/09/14 03:01:06;;;;;;;5.00;4.50;;;18.20;99.90;;;;;;5012885;28;20245;-85
2022/09/14 03:03:32;;;;;;;5.40;4.87;;;18.20;99.90;;;;;;5012865;28;20280;-85
2022/09/14 03:05:58;;;;;;;6.30;4.40;;;18.20;99.90;;;;;;5012783;28;20581;-85
2022/09/14 03:08:25;;;;;;;4.90;4.60;;;18.20;99.90;;;;;;5012801;28;20189;-86
2022/09/14 03:10:51;;;;;;;4.83;4.13;;;18.20;99.90;;;;;;5011303;28;20262;-85
2022/09/14 03:13:17;;;;;;;4.73;4.20;;;18.20;99.90;;;;;;5012841;28;20263;-86
2022/09/14 03:15:43;;;;;;;5.60;5.10;;;18.30;99.90;;;;;;5011196;28;20185;-86
2022/09/14 03:18:09;;;;;;;6.83;5.17;;;18.20;99.90;;;;;;5012656;28;20205;-88
2022/09/14 03:20:36;;;;;;;5.50;4.97;;;18.20;99.90;;;;;;5012456;28;20256;-86
2022/09/14 03:23:03;;;;;;;5.50;4.83;;;18.10;99.90;;;;;;5012453;28;20181;-87
2022/09/14 03:25:30;;;;;;;7.10;5.83;;;18.10;99.90;;;;;;5012705;28;20173;-88
2022/09/14 03:27:58;;;;;;;5.33;4.83;;;18.10;99.90;;;;;;5011372;28;20504;-86
2022/09/14 03:30:25;;;;;;;6.40;4.93;;;18.10;99.90;;;;;;5012893;28;20178;-87
2022/09/14 03:32:51;;;;;;;5.47;5.07;;;18.00;99.90;;;;;;5012156;28;20343;-84
2022/09/14 03:35:17;;;;;;;5.93;5.43;;;18.00;99.90;;;;;;5013948;28;20176;-86
2022/09/14 03:37:44;;;;;;;5.97;5.23;;;18.10;99.90;;;;;;5012756;28;20216;-86
2022/09/14 03:40:12;;;;;;;6.07;5.67;;;18.00;99.90;;;;;;5012124;28;20224;-85
2022/09/14 03:42:47;;;;;;;6.73;5.87;;;18.10;99.90;;;;;;5012299;28;20228;-85
2022/09/14 03:45:13;;;;;;;7.00;5.37;;;18.10;99.90;;;;;;5012065;28;20184;-85
2022/09/14 03:47:40;;;;;;;6.10;5.50;;;18.00;99.90;;;;;;5012319;28;20176;-85
2022/09/14 03:50:07;;;;;;;6.43;5.20;;;18.00;99.90;;;;;;5012190;28;20177;-86
2022/09/14 03:52:34;;;;;;;6.70;6.00;;;18.00;99.90;;;;;;5012073;28;20184;-86
2022/09/14 03:55:00;;;;;;;6.20;5.63;;;17.90;99.90;;;;;;5011978;28;20182;-86
2022/09/14 03:57:26;;;;;;;12.33;5.90;;;17.90;99.90;;;;;;5011952;28;20251;-86
2022/09/14 03:59:52;;;;;;;6.30;5.80;;;17.90;99.90;;;;;;5013722;28;20581;-85
2022/09/14 04:02:18;;;;;;;5.80;5.30;;;17.90;99.90;;;;;;5012737;28;20196;-88
2022/09/14 04:04:47;;;;;;;7.07;5.67;;;17.90;99.90;;;;;;5011878;28;20173;-86
2022/09/14 04:07:14;;;;;;;8.17;6.17;;;17.90;99.90;;;;;;5014808;28;20181;-86
2022/09/14 04:09:40;;;;;;;6.77;5.27;;;17.90;99.90;;;;;;5020255;28;20173;-86
2022/09/14 04:12:06;;;;;;;6.13;5.60;;;17.80;99.90;;;;;;5033311;28;20181;-88
2022/09/14 04:14:32;;;;;;;6.23;5.70;;;17.90;99.90;;;;;;5014565;28;20254;-85
2022/09/14 04:16:58;;;;;;;6.37;5.83;;;17.90;99.90;;;;;;5011692;28;20259;-87
2022/09/14 04:19:24;;;;;;;5.97;5.53;;;17.90;99.90;;;;;;5011148;28;20185;-86
2022/09/14 04:21:50;;;;;;;6.07;5.57;;;17.80;99.90;;;;;;5011705;28;20184;-87
2022/09/14 04:24:16;;;;;;;7.23;5.87;;;17.90;99.90;;;;;;5011548;28;20177;-86
2022/09/14 04:26:42;;;;;;;6.33;5.70;;;17.90;99.90;;;;;;5011433;28;20269;-88
2022/09/14 04:29:09;;;;;;;6.23;5.63;;;17.90;99.90;;;;;;5011920;28;20259;-89
2022/09/14 04:31:35;;;;;;;6.30;5.80;;;17.90;99.90;;;;;;5010951;28;20180;-87
2022/09/14 04:34:01;;;;;;;6.97;5.60;;;17.90;99.90;;;;;;5011146;28;20177;-87
2022/09/14 04:36:29;;;;;;;7.53;5.80;;;17.90;99.90;;;;;;5011559;28;20270;-88
2022/09/14 04:39:00;;;;;;;7.33;6.63;;;17.80;99.90;;;;;;5011370;28;20221;-89
2022/09/14 04:41:28;;;;;;;7.87;6.20;;;17.80;99.90;;;;;;5009824;28;20235;-88
2022/09/14 04:43:55;;;;;;;6.37;5.80;;;17.80;99.90;;;;;;5010922;28;20173;-88
2022/09/14 04:46:24;;;;;;;8.93;6.40;;;17.80;99.90;;;;;;5011207;28;20895;-86
2022/09/14 04:48:50;;;;;;;7.00;6.47;;;17.80;99.90;;;;;;5011097;28;20180;-89
2022/09/14 04:51:30;;;;;;;8.00;6.00;;;17.70;99.90;;;;;;5011466;28;20176;-88
2022/09/14 04:54:01;;;;;;;6.63;5.93;;;17.70;99.90;;;;;;5016118;28;20169;-89
2022/09/14 04:56:30;;;;;;;7.93;6.03;;;17.80;99.90;;;;;;5014996;28;20224;-89
2022/09/14 04:58:58;;;;;;;6.93;5.37;;;17.80;99.90;;;;;;5013074;28;20181;-88
2022/09/14 05:01:27;;;;;;;7.23;5.57;;;17.80;99.90;;;;;;5011619;28;20849;-88
2022/09/14 05:03:56;;;;;;;6.40;5.80;;;17.80;99.90;;;;;;5009711;28;20220;-88
2022/09/14 05:06:24;;;;;;;6.33;5.73;;;17.70;99.90;;;;;;5009873;28;20173;-88
2022/09/14 05:08:51;;;;;;;7.60;5.83;;;17.70;99.90;;;;;;5011381;28;20181;-89
2022/09/14 05:11:20;;;;;;;6.77;5.67;;;17.80;99.90;;;;;;5013534;28;20173;-87
2022/09/14 05:13:46;;;;;;;10.70;6.00;;;17.90;99.90;;;;;;5012247;28;20215;-89
2022/09/14 05:16:25;;;;;;;13.73;5.73;;;17.90;99.90;;;;;;5012378;28;20224;-90
2022/09/14 05:18:54;;;;;;;6.27;5.47;;;18.00;99.90;;;;;;5012628;28;20641;-88
2022/09/14 05:21:21;;;;;;;6.70;5.10;;;18.00;99.90;;;;;;5012565;28;20165;-88
2022/09/14 05:23:56;;;;;;;5.63;4.80;;;18.00;99.90;;;;;;5013900;28;20177;-88
2022/09/14 05:26:23;;;;;;;6.57;6.00;;;18.00;99.90;;;;;;5011295;28;20181;-87
2022/09/14 05:28:51;;;;;;;6.17;5.33;;;18.00;99.90;;;;;;5010461;28;20649;-87
2022/09/14 05:31:17;;;;;;;10.37;6.17;;;18.00;99.90;;;;;;5009026;28;20177;-90
2022/09/14 05:33:43;;;;;;;6.53;5.50;;;17.90;99.90;;;;;;5010568;28;20881;-87
2022/09/14 05:36:09;;;;;;;7.83;5.40;;;17.90;99.90;;;;;;5010466;28;20184;-87
2022/09/14 05:38:38;;;;;;;6.10;5.70;;;17.90;99.90;;;;;;5010195;28;20224;-87
2022/09/14 05:41:05;;;;;;;5.93;4.80;;;17.90;99.90;;;;;;5010171;28;20252;-87
2022/09/14 05:43:31;;;;;;;5.03;4.63;;;17.90;99.90;;;;;;5013935;28;20173;-86
2022/09/14 05:46:04;;;;;;;6.90;4.93;;;18.00;99.90;;;;;;5031350;28;20192;-88
2022/09/14 05:48:31;;;;;;;8.40;5.57;;;18.00;99.90;;;;;;5033789;28;20157;-88
2022/09/14 05:51:03;;;;;;;7.80;4.90;;;18.00;99.90;;;;;;5020434;28;20174;-87
2022/09/14 05:53:30;;;;;;;5.40;4.70;;;18.10;99.90;;;;;;5009726;28;20161;-86
2022/09/14 05:56:10;;;;;;;8.07;4.60;;;18.20;99.90;;;;;;5011139;28;20185;-87
2022/09/14 05:58:37;;;;;;;7.97;4.90;;;18.20;99.90;;;;;;5012298;28;20280;-88
2022/09/14 06:01:15;;;;;;;5.07;4.57;;;18.30;99.90;;;;;;5009900;28;20181;-87
2022/09/14 06:03:42;;;;;;;11.93;4.43;;;18.40;99.90;;;;;;5010747;28;20241;-87
2022/09/14 06:06:09;;;;;;;6.83;4.80;;;18.60;99.90;;;;;;5010154;28;20173;-88
2022/09/14 06:08:35;;;;;;;5.00;4.50;;;18.70;99.90;;;;;;5010638;28;20264;-85
2022/09/14 06:11:10;;;;;;;8.33;5.10;;;18.80;99.90;;;;;;5011829;28;20170;-87
2022/09/14 06:13:36;;;;;;;9.70;4.60;;;18.90;99.90;;;;;;5011491;28;20173;-86
2022/09/14 06:16:13;;;;;;;5.13;4.73;;;19.00;99.90;;;;;;5011907;28;20195;-87
2022/09/14 06:18:40;;;;;;;9.03;4.97;;;19.10;99.90;;;;;;5010437;28;20168;-87
2022/09/14 06:21:08;;;;;;;7.07;4.80;;;19.10;99.90;;;;;;5011165;28;20245;-87
2022/09/14 06:23:34;;;;;;;7.47;4.77;;;19.20;99.90;;;;;;5009096;28;20205;-85
2022/09/14 06:26:02;;;;;;;5.00;4.37;;;19.20;99.90;;;;;;5011524;28;20166;-85
2022/09/14 06:28:29;;;;;;;5.67;4.80;;;19.30;99.90;;;;;;5009131;28;20173;-86
2022/09/14 06:30:55;;;;;;;8.93;4.60;;;19.40;99.90;;;;;;5009461;28;20177;-86
2022/09/14 06:33:21;;;;;;;9.97;4.93;;;19.40;99.90;;;;;;5009774;28;20185;-86
2022/09/14 06:35:59;;;;;;;9.17;4.67;;;19.40;99.90;;;;;;5010780;28;20188;-85
2022/09/14 06:38:25;;;;;;;7.60;4.57;;;19.40;99.90;;;;;;5010104;28;20237;-85
2022/09/14 06:40:56;;;;;;;9.90;5.00;;;19.40;99.90;;;;;;5010942;28;20169;-86
2022/09/14 06:43:27;;;;;;;8.43;5.07;;;19.50;99.90;;;;;;5014161;28;20203;-86
2022/09/14 06:45:55;;;;;;;7.57;4.57;;;19.50;99.90;;;;;;5014153;28;20174;-85
2022/09/14 06:48:21;;;;;;;9.97;4.83;;;19.60;99.90;;;;;;5013874;28;20252;-85
2022/09/14 06:50:47;;;;;;;6.00;5.37;;;19.70;99.90;;;;;;5013413;28;20252;-85
2022/09/14 06:53:13;;;;;;;5.90;4.00;;;19.80;99.90;;;;;;5013176;28;20177;-85
2022/09/14 06:55:39;;;;;;;7.43;4.33;;;19.90;99.90;;;;;;5013704;28;20704;-85
2022/09/14 06:58:06;;;;;;;9.30;4.47;;;19.90;99.90;;;;;;5013253;28;20209;-86
2022/09/14 07:00:32;;;;;;;4.87;3.73;;;19.90;99.90;;;;;;5013961;28;20521;-85
2022/09/14 07:02:58;;;;;;;5.17;3.80;;;19.90;99.90;;;;;;5015490;28;20177;-85
2022/09/14 07:05:23;;;;;;;4.67;4.17;;;20.00;99.90;;;;;;5014978;28;20196;-86
2022/09/14 07:07:52;;;;;;;4.80;3.80;;;20.10;99.90;;;;;;5015269;28;20169;-86
2022/09/14 07:10:19;;;;;;;8.10;3.70;;;20.30;99.90;;;;;;5016775;28;20169;-86
2022/09/14 07:12:45;;;;;;;4.80;3.80;;;20.50;99.90;;;;;;5013424;28;20259;-85
2022/09/14 07:15:10;;;;;;;6.17;4.37;;;20.70;99.90;;;;;;5013177;28;20567;-86
2022/09/14 07:17:36;;;;;;;8.63;4.30;;;20.80;99.90;;;;;;5012830;28;20263;-85
2022/09/14 07:20:06;;;;;;;11.17;5.73;;;20.90;99.90;;;;;;5013365;28;20482;-86
2022/09/14 07:22:33;;;;;;;13.10;5.77;;;20.90;99.90;;;;;;5017762;28;20165;-86
2022/09/14 07:24:59;;;;;;;12.60;5.73;;;21.00;99.90;;;;;;5037119;28;20177;-86
2022/09/14 07:27:25;;;;;;;13.17;5.80;;;21.00;99.90;;;;;;5031658;28;20181;-86
2022/09/14 07:29:51;;;;;;;10.73;5.40;;;21.10;99.90;;;;;;5018077;28;20177;-86
2022/09/14 07:32:16;;;;;;;11.70;5.73;;;21.10;99.90;;;;;;5012531;28;20496;-85
2022/09/14 07:34:42;;;;;;;13.80;6.20;;;21.10;99.90;;;;;;5014769;28;20196;-86
2022/09/14 07:37:09;;;;;;;9.67;5.43;;;21.10;99.90;;;;;;5012545;28;20209;-85
2022/09/14 07:39:35;;;;;;;4.17;3.77;;;21.20;99.90;;;;;;5012492;28;20284;-86
2022/09/14 07:42:01;;;;;;;4.30;3.40;;;21.30;99.90;;;;;;5011600;28;20596;-85
2022/09/14 07:44:27;;;;;;;5.67;3.20;;;21.40;99.90;;;;;;5012623;28;20173;-86
2022/09/14 07:46:53;;;;;;;5.53;3.27;;;21.50;99.90;;;;;;5013031;28;20711;-85
2022/09/14 07:49:20;;;;;;;5.57;3.40;;;21.70;99.90;;;;;;5012411;28;20212;-87
2022/09/14 07:51:47;;;;;;;5.03;3.17;;;21.80;99.90;;;;;;5012331;28;20181;-87
2022/09/14 07:54:15;;;;;;;5.37;3.53;;;22.00;99.90;;;;;;5011893;28;20204;-87
2022/09/14 07:56:42;;;;;;;3.37;3.10;;;22.10;99.90;;;;;;5012755;28;20208;-88
2022/09/14 07:59:13;;;;;;;3.70;3.17;;;22.20;99.90;;;;;;5012763;28;20161;-87
2022/09/14 08:01:39;;;;;;;4.53;3.20;;;22.40;99.90;;;;;;5012427;28;20181;-87
2022/09/14 08:04:06;;;;;;;4.70;3.03;;;22.50;99.90;;;;;;5012511;28;20299;-87
2022/09/14 08:06:33;;;;;;;4.80;3.23;;;22.60;99.90;;;;;;5012540;28;20201;-87
2022/09/14 08:08:59;;;;;;;5.17;3.23;;;22.60;99.90;;;;;;5012156;28;20178;-87
2022/09/14 08:11:25;;;;;;;4.82;3.10;;;22.70;99.90;;;;;;5012662;28;20176;-87
2022/09/14 08:13:57;;;;;;;3.27;2.97;;;22.80;99.90;;;;;;5012678;28;20251;-87
2022/09/14 08:16:24;;;;;;;3.75;2.80;;;22.80;99.90;;;;;;5011486;28;20243;-87
2022/09/14 08:18:58;;;;;;;2.70;2.50;;;22.90;99.90;;;;;;5012448;28;20609;-85
2022/09/14 08:21:25;;;;;;;7.20;3.22;;;23.00;99.90;;;;;;5012445;28;20184;-85
2022/09/14 08:23:51;;;;;;;8.27;3.20;;;23.10;99.90;;;;;;5012312;28;20664;-85
2022/09/14 08:26:20;;;;;;;4.35;3.47;;;23.20;99.90;;;;;;5010509;28;20189;-85
2022/09/14 08:28:48;;;;;;;9.48;3.80;;;23.30;99.90;;;;;;5011569;28;20212;-86
2022/09/14 08:31:17;;;;;;;7.50;4.15;;;23.40;99.90;;;;;;5011629;28;20181;-85
2022/09/14 08:33:45;;;;;;;6.82;3.72;;;23.50;99.90;;;;;;5011873;28;20264;-86
2022/09/14 08:36:14;;;;;;;10.70;4.68;;;23.70;99.90;;;;;;5011719;28;20169;-85
2022/09/14 08:38:40;;;;;;;7.13;4.07;;;23.80;99.90;;;;;;5011584;28;20228;-85
2022/09/14 08:41:43;;;;;;;7.15;4.38;;;23.80;99.90;;;;;;5011544;28;20265;-85
2022/09/14 08:44:18;;;;;;;10.38;4.65;;;23.80;99.90;;;;;;5011873;28;20179;-85
2022/09/14 08:46:52;;;;;;;10.25;4.28;;;23.80;99.90;;;;;;5011561;28;20200;-85
2022/09/14 08:50:00;;;;;;;6.53;4.22;;;23.70;99.90;;;;;;5011796;28;20162;-85
2022/09/14 08:52:28;;;;;;;4.95;4.10;;;23.70;99.90;;;;;;5011508;28;20699;-85
2022/09/14 08:54:57;;;;;;;11.50;4.60;;;23.70;99.90;;;;;;5011607;28;20165;-85
2022/09/14 08:57:32;;;;;;;9.60;4.25;;;23.70;99.90;;;;;;5009891;28;20209;-85
2022/09/14 09:00:28;;;;;;;6.18;4.13;;;23.70;99.90;;;;;;5011906;28;20222;-85
2022/09/14 09:03:12;;;;;;;8.00;4.32;;;23.70;99.90;;;;;;5018939;28;20196;-85
2022/09/14 09:06:05;;;;;;;9.10;4.30;;;23.80;99.90;;;;;;5035162;28;20157;-85
2022/09/14 09:09:01;;;;;;;9.40;4.70;;;23.80;99.90;;;;;;5029078;28;20181;-86
2022/09/14 09:11:35;;;;;;;9.00;4.68;;;23.80;99.90;;;;;;5012214;28;20169;-85
2022/09/14 09:14:12;;;;;;;6.80;4.45;;;23.90;99.90;;;;;;5011266;28;20173;-85
2022/09/14 09:16:38;;;;;;;9.68;4.88;;;23.90;99.90;;;;;;5011286;28;20208;-85
2022/09/14 09:19:12;;;;;;;14.23;4.70;;;23.90;99.90;;;;;;5011055;28;20517;-85
2022/09/14 09:21:44;;;;;;;10.93;4.15;;;23.90;99.90;;;;;;5011118;28;20169;-86
2022/09/14 09:24:16;;;;;;;9.80;4.65;;;24.00;99.90;;;;;;5011384;28;20203;-86
2022/09/14 09:26:42;;;;;;;7.95;4.07;;;24.00;99.90;;;;;;5011898;28;20174;-86
2022/09/14 09:29:10;;;;;;;11.88;5.10;;;24.10;99.90;;;;;;5009894;28;20185;-85
2022/09/14 09:31:43;;;;;;;7.30;4.78;;;24.30;99.90;;;;;;5012036;28;20235;-86
2022/09/14 09:34:15;;;;;;;8.85;4.88;;;24.40;99.90;;;;;;5011587;28;20391;-86
2022/09/14 09:36:47;;;;;;;8.20;4.80;;;24.50;99.90;;;;;;5011284;28;20711;-85
2022/09/14 09:39:14;;;;;;;17.67;9.63;;;24.70;99.90;;;;;;5011081;28;20466;-87
2022/09/14 09:41:52;;;;;;;9.95;5.88;;;24.80;99.90;;;;;;5011540;28;20169;-86
2022/09/14 09:44:18;;;;;;;13.18;5.03;;;24.90;99.90;;;;;;5011450;28;20252;-86
2022/09/14 09:46:54;;;;;;;9.70;4.50;;;24.90;99.90;;;;;;5012010;28;20742;-86
2022/09/14 09:49:33;;;;;;;10.88;4.93;;;24.90;99.90;;;;;;5011132;28;20164;-86
2022/09/14 09:52:16;;;;;;;6.57;4.32;;;24.90;99.90;;;;;;5011114;28;20185;-86
2022/09/14 09:54:50;;;;;;;10.60;4.45;;;24.90;99.90;;;;;;5011025;28;20664;-86
2022/09/14 09:57:35;;;;;;;7.00;3.95;;;24.80;99.90;;;;;;5010699;28;20240;-86
2022/09/14 10:00:11;;;;;;;10.20;4.13;;;24.70;99.90;;;;;;5011494;28;20502;-87
2022/09/14 10:02:37;;;;;;;10.20;4.03;;;24.60;99.90;;;;;;5010455;28;20532;-86
2022/09/14 10:05:08;;;;;;;6.85;3.78;;;24.60;99.90;;;;;;5011085;28;20704;-86
2022/09/14 10:07:50;;;;;;;6.47;3.88;;;24.60;99.90;;;;;;5010579;28;20189;-86
2022/09/14 10:10:19;;;;;;;7.97;3.80;;;24.70;99.90;;;;;;5010274;28;20575;-85
2022/09/14 10:12:53;;;;;;;11.10;3.92;;;24.70;99.90;;;;;;5010487;28;20200;-86
2022/09/14 10:15:31;;;;;;;9.05;3.78;;;24.70;99.90;;;;;;5010346;28;20245;-85
2022/09/14 10:18:14;;;;;;;8.77;3.72;;;24.80;99.90;;;;;;5014143;28;20231;-86
2022/09/14 10:20:44;;;;;;;4.10;3.53;;;24.90;99.90;;;;;;5014091;28;20161;-86
2022/09/14 10:23:19;;;;;;;4.05;3.75;;;24.90;99.90;;;;;;5014154;28;20158;-87
2022/09/14 10:25:49;;;;;;;9.38;3.60;;;25.00;99.90;;;;;;5014448;28;20649;-86
2022/09/14 10:28:33;;;;;;;7.60;3.78;;;25.00;99.90;;;;;;5014404;28;20675;-85
2022/09/14 10:31:22;;;;;;;13.63;3.70;;;25.00;99.90;;;;;;5013917;28;20169;-85
2022/09/14 10:33:55;;;;;;;6.15;3.50;;;25.10;99.90;;;;;;5012327;28;20169;-86
2022/09/14 10:36:31;;;;;;;6.22;3.80;;;25.10;99.90;;;;;;5013856;28;20238;-86
2022/09/14 10:39:18;;;;;;;5.50;3.70;;;25.10;99.90;;;;;;5013462;28;20239;-86
2022/09/14 10:41:56;;;;;;;9.00;3.70;;;25.10;99.90;;;;;;5028570;28;20165;-85
2022/09/14 10:44:31;;;;;;;5.18;3.60;;;25.10;99.90;;;;;;5037329;28;20193;-87
2022/09/14 10:47:02;;;;;;;5.07;3.28;;;25.10;99.90;;;;;;5015588;28;20165;-87
2022/09/14 10:49:49;;;;;;;5.57;3.50;;;25.20;99.90;;;;;;5014267;28;20173;-86
2022/09/14 10:52:40;;;;;;;5.03;3.45;;;25.20;99.90;;;;;;5014189;28;20218;-86
2022/09/14 10:55:23;;;;;;;3.75;3.50;;;25.30;99.90;;;;;;5024043;28;20685;-87
2022/09/14 10:58:23;;;;;;;6.65;3.45;;;25.40;99.90;;;;;;5014235;28;20201;-85
2022/09/14 11:01:16;;;;;;;6.43;3.20;;;25.40;99.90;;;;;;5012988;28;20217;-86
2022/09/14 11:04:17;;;;;;;6.22;3.10;;;25.50;99.90;;;;;;5013488;28;20169;-87
2022/09/14 11:06:51;;;;;;;4.18;3.78;;;25.50;99.90;;;;;;5011715;28;20185;-86
2022/09/14 11:09:33;;;;;;;6.93;3.42;;;25.60;99.90;;;;;;5014074;28;20167;-85
2022/09/14 11:12:20;;;;;;;4.72;3.45;;;25.60;99.90;;;;;;5013236;28;20165;-87
2022/09/14 11:15:14;;;;;;;5.15;3.10;;;25.60;99.90;;;;;;5012849;28;20166;-86
2022/09/14 11:18:07;;;;;;;5.15;3.30;;;25.60;99.90;;;;;;5012890;28;20291;-87
2022/09/14 11:20:48;;;;;;;5.15;4.10;;;25.50;99.90;;;;;;5013016;28;20165;-87
2022/09/14 11:23:31;;;;;;;9.32;5.57;;;25.50;99.90;;;;;;5013059;28;20648;-87
2022/09/14 11:26:08;;;;;;;6.28;4.47;;;25.50;99.90;;;;;;5011594;28;20170;-86
2022/09/14 11:28:54;;;;;;;7.32;4.47;;;25.40;99.90;;;;;;5011861;28;20176;-87
2022/09/14 11:32:04;;;;;;;5.45;3.92;;;25.40;99.90;;;;;;5012670;28;20165;-86
2022/09/14 11:34:44;;;;;;;7.18;3.78;;;25.50;99.90;;;;;;5025478;28;20626;-85
2022/09/14 11:37:15;;;;;;;6.03;3.58;;;25.60;99.90;;;;;;5024439;28;20197;-86
2022/09/14 11:40:08;;;;;;;5.43;3.38;;;25.60;99.90;;;;;;5021827;28;20252;-87
2022/09/14 11:43:07;;;;;;;3.15;2.95;;;25.70;99.90;;;;;;5012984;28;20162;-86
2022/09/14 11:45:45;;;;;;;7.65;3.10;;;25.90;99.90;;;;;;5012403;28;20637;-87
2022/09/14 11:48:21;;;;;;;7.28;3.35;;;25.90;99.90;;;;;;5011529;28;20166;-86
2022/09/14 11:50:50;;;;;;;6.47;3.58;;;25.90;99.90;;;;;;5012443;28;20258;-87
2022/09/14 11:53:17;;;;;;;4.30;3.13;;;26.00;99.90;;;;;;5012478;28;20603;-86
2022/09/14 11:55:47;;;;;;;5.88;2.90;;;26.00;99.90;;;;;;5011444;28;20275;-86
2022/09/14 11:58:21;;;;;;;2.75;2.58;;;26.00;99.90;;;;;;5010807;28;20213;-87
2022/09/14 12:01:27;;;;;;;3.42;2.53;;;26.10;99.90;;;;;;5012487;28;20161;-86
2022/09/14 12:04:09;;;;;;;4.40;2.78;;;26.20;99.90;;;;;;5011318;28;20181;-86
2022/09/14 12:06:35;;;;;;;4.65;2.97;;;26.40;99.90;;;;;;5012239;28;20158;-87
2022/09/14 12:09:23;;;;;;;4.53;3.08;;;26.50;99.90;;;;;;5012457;28;20169;-86
2022/09/14 12:11:58;;;;;;;3.58;2.83;;;26.50;99.90;;;;;;5012231;28;20153;-87
2022/09/14 12:14:28;;;;;;;4.80;4.32;;;26.60;99.90;;;;;;5013298;28;20219;-87
2022/09/14 12:17:23;;;;;;;5.22;3.08;;;26.80;99.90;;;;;;5013197;28;20250;-87
2022/09/14 12:19:57;;;;;;;5.07;2.80;;;26.90;99.90;;;;;;5027999;28;20200;-85
2022/09/14 12:22:36;;;;;;;7.13;3.10;;;27.00;99.90;;;;;;5036563;28;20187;-86
2022/09/14 12:25:08;;;;;;;3.00;2.80;;;27.10;99.90;;;;;;5028428;28;20177;-87
2022/09/14 12:27:41;;;;;;;4.15;2.88;;;27.10;99.90;;;;;;5018642;28;20181;-87
2022/09/14 12:30:38;;;;;;;3.20;2.83;;;27.20;99.90;;;;;;5014076;28;20169;-87
2022/09/14 12:33:30;;;;;;;4.57;3.00;;;27.20;99.90;;;;;;5011621;28;20177;-87
2022/09/14 12:36:31;;;;;;;4.43;2.97;;;27.30;99.90;;;;;;5011220;28;20201;-85
2022/09/14 12:38:56;;;;;;;3.70;3.05;;;27.20;99.90;;;;;;5010920;28;20246;-86
2022/09/14 12:41:23;;;;;;;4.47;2.63;;;27.10;99.90;;;;;;5011475;28;20268;-86
2022/09/14 12:43:49;;;;;;;3.78;3.20;;;27.10;99.90;;;;;;5016506;28;20744;-85
2022/09/14 12:46:20;;;;;;;7.95;3.30;;;27.10;99.90;;;;;;5015356;28;20169;-86
2022/09/14 12:48:54;;;;;;;6.85;3.20;;;26.90;99.90;;;;;;5011977;28;20177;-86
2022/09/14 12:51:26;;;;;;;5.57;3.08;;;27.00;99.90;;;;;;5010026;28;20173;-87
2022/09/14 12:54:00;;;;;;;5.07;2.50;;;26.90;99.90;;;;;;5011396;28;20245;-86
2022/09/14 12:57:03;;;;;;;2.80;2.60;;;26.90;99.90;;;;;;5011707;28;20191;-87
2022/09/14 12:59:31;;;;;;;2.60;2.40;;;26.70;99.90;;;;;;5011044;28;20218;-87
2022/09/14 13:02:00;;;;;;;3.92;2.30;;;26.70;99.90;;;;;;5009850;28;20688;-88
2022/09/14 13:04:32;;;;;;;5.18;2.40;;;26.60;99.90;;;;;;5011040;28;20180;-87
2022/09/14 13:07:00;;;;;;;2.65;2.45;;;26.50;99.90;;;;;;5010878;28;20180;-87
2022/09/14 13:09:30;;;;;;;4.03;2.65;;;26.50;99.90;;;;;;5011182;28;20173;-87
2022/09/14 13:12:08;;;;;;;5.88;2.50;;;26.50;99.90;;;;;;5011193;28;20532;-87
2022/09/14 13:14:44;;;;;;;3.55;3.35;;;26.40;99.90;;;;;;5010981;28;20192;-86